createdAt,value
2019-05-30T00:04:03.047Z,85.54
2019-05-30T00:06:32.068Z,85.93
2019-05-30T00:11:49.661Z,86.55
2019-05-30T00:14:18.937Z,86.32
2019-05-30T00:16:48.217Z,85.78
2019-05-30T00:19:17.523Z,86.86
2019-05-30T00:21:46.863Z,86.41
2019-05-30T00:24:16.160Z,86.38
2019-05-30T00:26:45.439Z,87.22
2019-05-30T00:29:14.767Z,86.90
2019-05-30T00:31:44.095Z,87.04
2019-05-30T00:34:13.406Z,86.50
2019-05-30T00:36:42.677Z,86.86
2019-05-30T00:39:11.964Z,88.45
2019-05-30T00:44:29.546Z,87.79
2019-05-30T00:47:00.494Z,87.71
2019-05-30T00:49:29.918Z,88.06
2019-05-30T00:52:00.450Z,88.34
2019-05-30T00:54:30.155Z,88.63
2019-05-30T00:57:18.389Z,88.37
2019-05-30T00:59:47.704Z,87.66
2019-05-30T01:02:17.016Z,88.10
2019-05-30T01:04:46.327Z,87.97
2019-05-30T01:07:15.613Z,87.96
2019-05-30T01:09:44.905Z,87.80
2019-05-30T01:12:14.210Z,88.22
2019-05-30T01:14:43.557Z,87.63
2019-05-30T01:17:12.851Z,88.46
2019-05-30T01:19:42.116Z,87.73
2019-05-30T01:22:11.387Z,89.36
2019-05-30T01:27:15.648Z,88.88
2019-05-30T01:29:44.947Z,89.38
2019-05-30T01:32:33.142Z,89.67
2019-05-30T01:35:03.721Z,89.97
2019-05-30T01:37:33.433Z,90.38
2019-05-30T01:40:03.911Z,90.06
2019-05-30T01:42:33.736Z,89.79
2019-05-30T01:45:04.218Z,91.10
2019-05-30T01:47:34.165Z,89.93
2019-05-30T01:50:22.494Z,90.12
2019-05-30T01:53:04.631Z,89.45
2019-05-30T01:55:34.006Z,90.27
2019-05-30T01:58:03.402Z,90.17
2019-05-30T02:00:53.480Z,90.18
2019-05-30T02:03:22.765Z,89.21
2019-05-30T02:05:52.034Z,88.64
2019-05-30T02:10:55.823Z,87.71
2019-05-30T02:13:25.087Z,87.71
2019-05-30T02:15:54.379Z,86.81
2019-05-30T02:18:23.668Z,86.23
2019-05-30T02:20:52.993Z,85.78
2019-05-30T02:23:41.322Z,85.38
2019-05-30T02:26:10.688Z,84.98
2019-05-30T02:31:38.810Z,84.57
2019-05-30T02:34:12.244Z,83.56
2019-05-30T02:36:41.679Z,83.56
2019-05-30T02:39:11.986Z,83.41
2019-05-30T02:41:41.973Z,83.07
2019-05-30T02:44:12.525Z,82.65
2019-05-30T02:46:57.985Z,81.55
2019-05-30T02:49:46.313Z,81.55
2019-05-30T02:52:15.599Z,81.62
2019-05-30T02:54:44.880Z,81.39
2019-05-30T02:57:14.174Z,81.32
2019-05-30T02:59:43.435Z,81.12
2019-05-30T03:02:16.758Z,80.89
2019-05-30T03:04:43.743Z,81.44
2019-05-30T03:07:13.254Z,81.03
2019-05-30T03:09:44.097Z,81.03
2019-05-30T03:18:23.276Z,82.76
2019-05-30T03:20:52.583Z,82.11
2019-05-30T03:23:21.881Z,82.64
2019-05-30T03:25:51.169Z,82.43
2019-05-30T03:28:20.429Z,82.76
2019-05-30T03:30:49.731Z,82.75
2019-05-30T03:33:37.814Z,82.70
2019-05-30T03:35:50.065Z,83.86
2019-05-30T03:38:19.410Z,83.36
2019-05-30T03:40:48.704Z,84.60
2019-05-30T03:43:18.022Z,83.71
2019-05-30T03:45:47.484Z,83.51
2019-05-30T03:48:56.471Z,83.08
2019-05-30T04:04:19.041Z,82.47
2019-05-30T04:13:29.113Z,82.32
2019-05-30T04:15:58.406Z,82.41
2019-05-30T04:18:27.701Z,82.70
2019-05-30T04:20:56.977Z,81.94
2019-05-30T04:23:26.267Z,82.35
2019-05-30T04:26:00.144Z,82.58
2019-05-30T04:28:26.590Z,82.23
2019-05-30T04:30:55.874Z,81.80
2019-05-30T04:33:32.436Z,81.50
2019-05-30T04:35:56.169Z,81.14
2019-05-30T04:38:25.450Z,80.91
2019-05-30T04:40:54.748Z,80.85
2019-05-30T04:43:24.040Z,80.40
2019-05-30T04:49:00.581Z,80.28
2019-05-30T04:51:29.871Z,80.39
2019-05-30T04:53:59.434Z,80.00
2019-05-30T04:56:28.737Z,80.11
2019-05-30T04:59:02.720Z,79.54
2019-05-30T05:01:32.001Z,79.51
2019-05-30T05:04:01.276Z,79.25
2019-05-30T05:06:49.611Z,78.78
2019-05-30T05:09:20.273Z,79.18
2019-05-30T05:11:49.907Z,78.69
2019-05-30T05:14:20.565Z,79.10
2019-05-30T05:16:50.234Z,78.76
2019-05-30T05:19:19.950Z,78.62
2019-05-30T05:21:50.532Z,78.59
2019-05-30T05:24:19.806Z,78.27
2019-05-30T05:26:49.089Z,78.40
2019-05-30T05:29:18.395Z,78.37
2019-05-30T05:31:47.684Z,78.14
2019-05-30T05:34:16.974Z,78.03
2019-05-30T05:36:46.271Z,78.43
2019-05-30T05:39:16.153Z,78.78
2019-05-30T05:41:46.566Z,79.23
2019-05-30T05:44:34.760Z,79.63
2019-05-30T05:47:04.060Z,80.26
2019-05-30T05:49:34.085Z,80.21
2019-05-30T05:52:03.338Z,81.03
2019-05-30T05:54:51.512Z,80.63
2019-05-30T05:57:39.726Z,80.58
2019-05-30T06:03:24.140Z,80.46
2019-05-30T06:05:53.929Z,80.67
2019-05-30T06:08:23.738Z,79.90
2019-05-30T06:10:54.230Z,79.84
2019-05-30T06:13:24.796Z,79.20
2019-05-30T06:15:54.538Z,79.21
2019-05-30T06:18:24.247Z,78.79
2019-05-30T06:20:54.959Z,78.49
2019-05-30T06:23:24.242Z,78.06
2019-05-30T06:25:53.563Z,77.91
2019-05-30T06:28:24.059Z,78.05
2019-05-30T06:30:53.920Z,77.44
2019-05-30T06:33:23.812Z,77.29
2019-05-30T06:35:54.265Z,77.05
2019-05-30T06:41:11.856Z,77.32
2019-05-30T06:43:41.126Z,77.50
2019-05-30T06:46:10.396Z,77.77
2019-05-30T06:48:39.697Z,77.47
2019-05-30T06:51:08.988Z,77.07
2019-05-30T06:53:38.421Z,76.50
2019-05-30T06:56:07.751Z,76.84
2019-05-30T06:58:47.923Z,75.88
2019-05-30T07:01:08.091Z,75.75
2019-05-30T07:06:27.124Z,75.64
2019-05-30T07:08:56.719Z,75.25
2019-05-30T07:11:26.801Z,75.38
2019-05-30T07:13:57.085Z,75.36
2019-05-30T07:16:27.353Z,75.11
2019-05-30T07:18:57.638Z,74.91
2019-05-30T07:21:27.658Z,74.85
2019-05-30T07:23:58.038Z,74.81
2019-05-30T07:26:27.702Z,74.40
2019-05-30T07:29:00.645Z,74.08
2019-05-30T07:31:30.182Z,73.84
2019-05-30T07:34:00.586Z,73.48
2019-05-30T07:36:30.345Z,73.68
2019-05-30T07:39:01.021Z,74.05
2019-05-30T07:41:30.649Z,74.69
2019-05-30T07:46:49.782Z,75.97
2019-05-30T07:52:07.375Z,77.48
2019-05-30T07:54:36.675Z,78.44
2019-05-30T07:57:06.012Z,78.77
2019-05-30T07:59:35.289Z,79.76
2019-05-30T08:04:52.963Z,82.38
2019-05-30T08:13:11.941Z,85.87
2019-05-30T08:15:44.072Z,85.54
2019-05-30T08:18:12.293Z,87.33
2019-05-30T08:20:41.593Z,86.25
2019-05-30T08:23:10.900Z,85.92
2019-05-30T08:25:40.165Z,87.61
2019-05-30T08:28:09.486Z,88.03
2019-05-30T08:30:38.899Z,89.04
2019-05-30T08:33:08.176Z,88.39
2019-05-30T08:35:56.356Z,89.21
2019-05-30T08:38:25.659Z,90.04
2019-05-30T08:40:54.942Z,88.59
2019-05-30T08:43:24.218Z,90.58
2019-05-30T08:45:53.514Z,89.04
2019-05-30T08:48:22.804Z,89.21
2019-05-30T08:50:52.127Z,90.21
2019-05-30T08:56:09.758Z,90.23
2019-05-30T08:58:39.043Z,89.97
2019-05-30T09:01:08.404Z,90.40
2019-05-30T09:03:38.461Z,90.86
2019-05-30T09:06:08.797Z,92.18
2019-05-30T09:08:38.089Z,91.13
2019-05-30T09:11:07.349Z,90.85
2019-05-30T09:13:37.846Z,91.52
2019-05-30T09:16:07.704Z,90.48
2019-05-30T09:18:38.544Z,92.44
2019-05-30T09:21:07.967Z,91.48
2019-05-30T09:23:38.641Z,92.04
2019-05-30T09:26:08.274Z,92.13
2019-05-30T09:31:25.853Z,93.05
2019-05-30T09:34:14.047Z,93.71
2019-05-30T09:37:02.408Z,93.77
2019-05-30T09:39:31.688Z,93.69
2019-05-30T09:42:00.974Z,94.58
2019-05-30T09:44:30.397Z,94.58
2019-05-30T09:46:59.661Z,94.67
2019-05-30T09:49:28.945Z,95.37
2019-05-30T09:51:58.240Z,95.20
2019-05-30T09:54:27.516Z,94.85
2019-05-30T09:56:57.465Z,96.15
2019-05-30T09:59:28.030Z,95.83
2019-05-30T10:01:57.322Z,96.37
2019-05-30T10:04:26.581Z,96.85
2019-05-30T10:06:55.872Z,97.27
2019-05-30T10:09:25.167Z,97.13
2019-05-30T10:11:55.480Z,97.71
2019-05-30T10:14:25.489Z,97.54
2019-05-30T10:16:56.462Z,99.07
2019-05-30T10:19:25.757Z,99.19
2019-05-30T10:21:55.046Z,97.82
2019-05-30T10:24:24.324Z,98.26
2019-05-30T10:26:53.621Z,99.34
2019-05-30T10:29:22.894Z,99.37
2019-05-30T10:31:52.657Z,98.72
2019-05-30T10:34:23.206Z,98.71
2019-05-30T10:36:53.665Z,98.44
2019-05-30T10:39:23.528Z,99.78
2019-05-30T10:41:53.148Z,99.62
2019-05-30T10:44:23.789Z,100.00
2019-05-30T10:46:54.430Z,99.71
2019-05-30T10:49:34.281Z,99.67
2019-05-30T10:51:58.807Z,100.00
2019-05-30T10:54:26.108Z,100.00
2019-05-30T10:56:55.713Z,100.00
2019-05-30T10:59:26.403Z,100.00
2019-05-30T11:01:56.674Z,100.00
2019-05-30T11:04:45.941Z,100.00
2019-05-30T11:13:43.949Z,100.00
2019-05-30T11:16:13.253Z,100.00
2019-05-30T11:18:42.530Z,100.00
2019-05-30T11:21:11.917Z,100.00
2019-05-30T11:23:41.197Z,100.00
2019-05-30T11:26:10.469Z,100.00
2019-05-30T11:28:58.892Z,100.00
2019-05-30T11:31:28.302Z,100.00
2019-05-30T11:36:45.906Z,100.00
2019-05-30T11:39:15.168Z,100.00
2019-05-30T11:41:44.552Z,100.00
2019-05-30T11:44:13.835Z,100.00
2019-05-30T11:46:43.126Z,100.00
2019-05-30T11:49:12.436Z,100.00
2019-05-30T11:52:00.825Z,100.00
2019-05-30T11:54:30.144Z,100.00
2019-05-30T11:57:00.297Z,100.00
2019-05-30T12:02:10.930Z,100.00
2019-05-30T12:04:40.211Z,100.00
2019-05-30T12:07:09.514Z,100.00
2019-05-30T12:09:38.810Z,100.00
2019-05-30T12:12:08.214Z,100.00
2019-05-30T12:14:37.521Z,100.00
2019-05-30T12:17:06.823Z,100.00
2019-05-30T12:19:36.114Z,100.00
2019-05-30T12:22:44.759Z,100.00
2019-05-30T12:28:28.523Z,100.00
2019-05-30T12:31:02.698Z,100.00
2019-05-30T12:33:28.787Z,100.00
2019-05-30T12:35:58.572Z,100.00
2019-05-30T12:38:29.105Z,100.00
2019-05-30T12:40:58.791Z,100.00
2019-05-30T12:43:29.514Z,100.00
2019-05-30T12:46:17.689Z,100.00
2019-05-30T12:48:47.020Z,100.00
2019-05-30T12:54:04.552Z,100.00
2019-05-30T12:56:33.844Z,100.00
2019-05-30T12:59:03.159Z,100.00
2019-05-30T13:04:07.417Z,100.00
2019-05-30T13:06:38.196Z,100.00
2019-05-30T13:09:48.144Z,100.00
2019-05-30T13:12:17.459Z,100.00
2019-05-30T13:14:46.721Z,100.00
2019-05-30T13:25:35.194Z,100.00
2019-05-30T13:28:07.186Z,100.00
2019-05-30T13:30:35.595Z,100.00
2019-05-30T13:33:04.996Z,100.00
2019-05-30T13:35:34.254Z,100.00
2019-05-30T13:38:03.624Z,100.00
2019-05-30T13:40:32.940Z,100.00
2019-05-30T13:43:21.311Z,100.00
2019-05-30T13:45:50.642Z,100.00
2019-05-30T13:48:19.912Z,100.00
2019-05-30T13:50:49.215Z,100.00
2019-05-30T13:53:18.506Z,100.00
2019-05-30T13:55:47.830Z,100.00
2019-05-30T13:58:17.254Z,100.00
2019-05-30T14:00:46.516Z,100.00
2019-05-30T14:03:15.861Z,100.00
2019-05-30T14:05:45.167Z,100.00
2019-05-30T14:08:16.696Z,100.00
2019-05-30T14:13:39.330Z,100.00
2019-05-30T14:16:09.029Z,100.00
2019-05-30T14:18:39.640Z,100.00
2019-05-30T14:21:09.351Z,100.00
2019-05-30T14:23:39.949Z,100.00
2019-05-30T14:26:09.524Z,100.00
2019-05-30T14:28:40.228Z,100.00
2019-05-30T14:31:11.700Z,100.00
2019-05-30T14:33:40.680Z,100.00
2019-05-30T14:36:11.394Z,100.00
2019-05-30T14:38:56.758Z,100.00
2019-05-30T14:41:13.412Z,100.00
2019-05-30T14:43:43.123Z,100.00
2019-05-30T14:46:12.511Z,100.00
2019-05-30T14:48:41.810Z,100.00
2019-05-30T14:51:31.070Z,100.00
2019-05-30T14:54:00.491Z,100.00
2019-05-30T14:56:29.847Z,100.00
2019-05-30T14:58:59.163Z,100.00
2019-05-30T15:01:28.582Z,100.00
2019-05-30T15:03:57.893Z,100.00
2019-05-30T15:06:27.190Z,100.00
2019-05-30T15:08:56.481Z,100.00
2019-05-30T15:11:25.791Z,100.00
2019-05-30T15:13:55.105Z,100.00
2019-05-30T15:16:24.522Z,100.00
2019-05-30T15:18:53.826Z,100.00
2019-05-30T15:24:05.645Z,100.00
2019-05-30T15:29:10.691Z,100.00
2019-05-30T15:31:39.989Z,100.00
2019-05-30T15:34:10.469Z,100.00
2019-05-30T15:36:59.257Z,100.00
2019-05-30T15:39:32.649Z,100.00
2019-05-30T15:41:59.562Z,100.00
2019-05-30T15:44:47.735Z,100.00
2019-05-30T15:47:18.378Z,100.00
2019-05-30T15:49:52.041Z,100.00
2019-05-30T15:52:19.158Z,100.00
2019-05-30T15:54:48.471Z,100.00
2019-05-30T15:57:17.794Z,100.00
2019-05-30T15:59:47.072Z,100.00
2019-05-30T16:02:16.472Z,100.00
2019-05-30T16:04:45.761Z,100.00
2019-05-30T16:07:15.039Z,100.00
2019-05-30T16:09:47.416Z,100.00
2019-05-30T16:12:15.340Z,100.00
2019-05-30T16:14:44.922Z,100.00
2019-05-30T16:17:15.790Z,100.00
2019-05-30T16:19:45.478Z,100.00
2019-05-30T16:22:14.777Z,100.00
2019-05-30T16:24:44.071Z,100.00
2019-05-30T16:27:13.661Z,100.00
2019-05-30T16:29:44.421Z,100.00
2019-05-30T16:32:13.858Z,100.00
2019-05-30T16:34:43.121Z,100.00
2019-05-30T16:37:12.457Z,100.00
2019-05-30T16:39:41.698Z,100.00
2019-05-30T16:42:11.014Z,100.00
2019-05-30T16:44:59.338Z,100.00
2019-05-30T16:47:28.618Z,100.00
2019-05-30T16:49:57.892Z,100.00
2019-05-30T16:52:27.340Z,100.00
2019-05-30T16:54:56.708Z,100.00
2019-05-30T16:57:26.723Z,100.00
2019-05-30T16:59:57.070Z,100.00
2019-05-30T17:02:26.999Z,100.00
2019-05-30T17:04:57.553Z,100.00
2019-05-30T17:07:27.613Z,100.00
2019-05-30T17:09:57.904Z,100.00
2019-05-30T17:12:27.184Z,100.00
2019-05-30T17:14:56.450Z,100.00
2019-05-30T17:17:26.206Z,100.00
2019-05-30T17:19:56.798Z,100.00
2019-05-30T17:22:29.398Z,100.00
2019-05-30T17:24:57.154Z,100.00
2019-05-30T17:27:26.486Z,100.00
2019-05-30T17:29:55.790Z,100.00
2019-05-30T17:32:25.887Z,100.00
2019-05-30T17:37:44.366Z,100.00
2019-05-30T17:43:22.950Z,100.00
2019-05-30T17:45:53.586Z,100.00
2019-05-30T17:48:41.796Z,100.00
2019-05-30T17:51:11.067Z,100.00
2019-05-30T17:53:40.413Z,100.00
2019-05-30T17:56:09.751Z,100.00
2019-05-30T17:58:58.137Z,100.00
2019-05-30T18:01:28.440Z,100.00
2019-05-30T18:03:58.443Z,100.00
2019-05-30T18:06:28.647Z,100.00
2019-05-30T18:08:58.739Z,100.00
2019-05-30T18:11:29.026Z,100.00
2019-05-30T18:16:33.938Z,100.00
2019-05-30T18:19:03.261Z,100.00
2019-05-30T18:21:32.536Z,100.00
2019-05-30T18:24:02.152Z,100.00
2019-05-30T18:26:51.944Z,100.00
2019-05-30T18:29:21.780Z,100.00
2019-05-30T18:31:52.378Z,100.00
2019-05-30T18:34:22.313Z,100.00
2019-05-30T18:36:52.716Z,100.00
2019-05-30T18:39:22.363Z,100.00
2019-05-30T18:41:51.830Z,100.00
2019-05-30T18:45:00.435Z,100.00
2019-05-30T18:50:18.177Z,100.00
2019-05-30T18:52:47.599Z,100.00
2019-05-30T18:55:36.889Z,100.00
2019-05-30T19:00:55.250Z,100.00
2019-05-30T19:03:24.571Z,100.00
2019-05-30T19:05:53.907Z,100.00
2019-05-30T19:08:23.239Z,100.00
2019-05-30T19:10:52.546Z,100.00
2019-05-30T19:16:10.139Z,100.00
2019-05-30T19:18:59.796Z,100.00
2019-05-30T19:21:30.023Z,100.00
2019-05-30T19:24:00.136Z,100.00
2019-05-30T19:26:30.425Z,100.00
2019-05-30T19:29:00.481Z,100.00
2019-05-30T19:31:30.585Z,100.00
2019-05-30T19:34:00.781Z,100.00
2019-05-30T19:36:31.052Z,100.00
2019-05-30T19:42:09.720Z,100.00
2019-05-30T19:44:41.454Z,100.00
2019-05-30T19:47:10.016Z,100.00
2019-05-30T19:49:39.323Z,100.00
2019-05-30T19:54:56.944Z,100.00
2019-05-30T19:57:26.249Z,100.00
2019-05-30T19:59:57.463Z,100.00
2019-05-30T20:02:26.581Z,100.00
2019-05-30T20:04:55.878Z,100.00
2019-05-30T20:07:25.173Z,100.00
2019-05-30T20:10:01.334Z,100.00
2019-05-30T20:12:25.499Z,100.00
2019-05-30T20:15:13.718Z,100.00
2019-05-30T20:17:43.005Z,100.00
2019-05-30T20:23:08.035Z,100.00
2019-05-30T20:25:40.753Z,100.00
2019-05-30T20:28:08.331Z,100.00
2019-05-30T20:30:37.613Z,100.00
2019-05-30T20:33:06.944Z,100.00
2019-05-30T20:38:24.504Z,100.00
2019-05-30T20:43:28.504Z,100.00
2019-05-30T20:45:57.829Z,100.00
2019-05-30T20:48:27.130Z,100.00
2019-05-30T20:50:56.400Z,100.00
2019-05-30T20:53:25.681Z,100.00
2019-05-30T20:58:43.881Z,100.00
2019-05-30T21:01:14.225Z,100.00
2019-05-30T21:03:43.828Z,100.00
2019-05-30T21:09:49.390Z,100.00
2019-05-30T21:15:44.195Z,100.00
2019-05-30T21:18:13.469Z,100.00
2019-05-30T21:20:42.755Z,100.00
2019-05-30T21:25:47.467Z,100.00
2019-05-30T21:28:18.319Z,100.00
2019-05-30T21:30:47.617Z,100.00
2019-05-30T21:35:51.900Z,100.00
2019-05-30T21:38:21.178Z,100.00
2019-05-30T21:40:50.464Z,100.00
2019-05-30T21:43:19.713Z,100.00
2019-05-30T21:45:49.096Z,100.00
2019-05-30T21:48:18.369Z,100.00
2019-05-30T21:51:06.699Z,100.00
2019-05-30T21:53:55.203Z,100.00
2019-05-30T21:56:24.498Z,100.00
2019-05-30T22:01:42.609Z,100.00
2019-05-30T22:04:13.118Z,100.00
2019-05-30T22:07:01.472Z,100.00
2019-05-30T22:09:30.762Z,100.00
2019-05-30T22:12:00.040Z,100.00
2019-05-30T22:14:29.337Z,100.00
2019-05-30T22:16:58.694Z,100.00
2019-05-30T22:19:27.969Z,100.00
2019-05-30T22:21:57.284Z,100.00
2019-05-30T22:24:26.564Z,100.00
2019-05-30T22:26:55.858Z,100.00
2019-05-30T22:29:25.149Z,100.00
2019-05-30T22:32:13.514Z,100.00
2019-05-30T22:34:42.812Z,100.00
2019-05-30T22:37:12.092Z,100.00
2019-05-30T22:39:42.674Z,100.00
2019-05-30T22:42:12.398Z,100.00
2019-05-30T22:44:41.678Z,100.00
2019-05-30T22:47:10.969Z,99.99
2019-05-30T22:49:40.246Z,99.62
2019-05-30T22:52:09.514Z,99.28
2019-05-30T22:54:38.780Z,99.49
2019-05-30T22:57:08.045Z,99.61
2019-05-30T22:59:37.320Z,99.81
2019-05-30T23:02:06.600Z,99.85
2019-05-30T23:04:35.880Z,100.00
2019-05-30T23:07:05.164Z,100.00
2019-05-30T23:09:34.435Z,100.00
2019-05-30T23:12:03.739Z,100.00
2019-05-30T23:14:32.998Z,100.00
2019-05-30T23:17:02.258Z,100.00
2019-05-30T23:19:31.600Z,99.88
2019-05-30T23:22:00.873Z,99.82
2019-05-30T23:24:30.165Z,99.98
2019-05-30T23:26:59.520Z,100.00
2019-05-30T23:29:28.804Z,100.00
2019-05-30T23:34:33.966Z,100.00
2019-05-30T23:37:03.291Z,100.00
2019-05-30T23:39:32.557Z,100.00
2019-05-30T23:45:09.007Z,100.00
2019-05-30T23:47:38.287Z,100.00
2019-05-30T23:53:02.343Z,100.00
2019-05-30T23:55:31.725Z,100.00
2019-05-30T23:58:01.034Z,100.00
